Thunder radar more information blitzortung!


Radar de pluja more information rain snow radar


Visita la nostra xarxa de llocs de meteo:

Template documentation
and downloads

And another site



No particular awareness of the weather is required.    There are no Weather-warnings

Pagina Historial Weather Underground text

Diari Resum Abril 22, 2016 Unitats:  Mètric    Imperial   Tant
« Previous Dia
SegĂźent Dia »
Diari Setmana Mensual Anual Personalitzada
  Maxima: Minima: Media:
Temperatura: 18.9 °C 11.2 °C 15.4 °C
Punt de rosada: 13.0 °C 8.7 °C 10.9 °C
Humitat: 91 % 63 % 75 %
Wind Speed: 13.0 km/h 0.0 km/h 4.9 km/h
RĂ fegues de vent: 13.0 km/h - -
Vent:- - SSW
Pression baro: 1022.9 hPa 1015.8 hPa -
Precipitacions: 1.3 mm    
Historical Graphs
 
 
Dades de taula per Abril 22, 2016
Temps Temperatura Punt de rosada Pression baro Vent Wind Speed RĂ fegues de vent Humitat Rainfall Rate (Hourly)
00:03 12.6 °C 10.8 °C 1021.9 hPa Calm     89 % 0.0 mm
00:05 12.3 °C 10.9 °C 1021.9 hPa ENE 1.6 km/h 3.2 km/h 91 % 0.0 mm
00:08 12.5 °C 10.7 °C 1021.9 hPa Calm     89 % 0.0 mm
00:13 12.5 °C 10.7 °C 1021.9 hPa South 1.9 km/h 1.9 km/h 89 % 0.0 mm
00:15 12.2 °C 10.6 °C 1020.9 hPa ENE 3.2 km/h 3.2 km/h 90 % 0.0 mm
00:18 12.5 °C 10.7 °C 1021.9 hPa Calm     89 % 0.0 mm
00:23 12.5 °C 10.9 °C 1021.9 hPa ESE 3.7 km/h 3.7 km/h 90 % 0.0 mm
00:25 12.0 °C 10.2 °C 1020.9 hPa NE 3.2 km/h 4.8 km/h 89 % 0.0 mm
00:35 11.7 °C 9.9 °C 1020.9 hPa NE 3.2 km/h 4.8 km/h 89 % 0.0 mm
00:45 11.6 °C 9.7 °C 1020.9 hPa NE 3.2 km/h 4.8 km/h 88 % 0.0 mm
00:55 11.5 °C 9.4 °C 1020.9 hPa NNE 1.6 km/h 3.2 km/h 87 % 0.0 mm
01:05 11.4 °C 9.3 °C 1020.9 hPa North 1.6 km/h 3.2 km/h 87 % 0.0 mm
01:15 11.3 °C 9.2 °C 1020.9 hPa NNE 3.2 km/h 6.4 km/h 87 % 0.0 mm
01:25 11.3 °C 9.2 °C 1020.9 hPa NE 1.6 km/h 3.2 km/h 87 % 0.0 mm
01:35 11.2 °C 9.1 °C 1020.9 hPa NE 1.6 km/h 4.8 km/h 87 % 0.0 mm
01:55 11.2 °C 9.1 °C 1020.9 hPa NNE 1.6 km/h 3.2 km/h 87 % 0.0 mm
02:05 11.2 °C 9.1 °C 1020.9 hPa NE 3.2 km/h 4.8 km/h 87 % 0.0 mm
02:15 11.2 °C 9.1 °C 1020.9 hPa NE 1.6 km/h 3.2 km/h 87 % 0.0 mm
02:25 11.2 °C 9.1 °C 1020.9 hPa NNE 1.6 km/h 3.2 km/h 87 % 0.0 mm
02:35 11.3 °C 9.2 °C 1020.9 hPa Calm   3.2 km/h 87 % 0.0 mm
02:45 11.3 °C 9.2 °C 1021.9 hPa Calm   3.2 km/h 87 % 0.0 mm
03:05 11.3 °C 9.2 °C 1022.9 hPa Calm     87 % 0.0 mm
03:15 11.4 °C 9.2 °C 1021.9 hPa Calm   3.2 km/h 86 % 0.0 mm
03:25 11.5 °C 9.4 °C 1021.9 hPa Calm   3.2 km/h 87 % 0.0 mm
03:35 11.8 °C 9.7 °C 1021.9 hPa SW 3.2 km/h 3.2 km/h 87 % 0.0 mm
03:45 12.0 °C 9.9 °C 1021.9 hPa SW 1.6 km/h 4.8 km/h 87 % 0.0 mm
03:55 12.2 °C 10.3 °C 1021.9 hPa Calm   4.8 km/h 88 % 0.0 mm
04:05 12.6 °C 10.7 °C 1021.9 hPa Calm   1.6 km/h 88 % 0.0 mm
04:15 13.1 °C 11.2 °C 1021.9 hPa Calm   4.8 km/h 88 % 0.0 mm
04:25 13.5 °C 11.4 °C 1021.9 hPa Calm   1.6 km/h 87 % 0.0 mm
04:35 14.0 °C 11.7 °C 1021.9 hPa WSW 1.6 km/h 3.2 km/h 86 % 0.0 mm
04:45 14.0 °C 11.3 °C 1021.9 hPa West 1.6 km/h 6.4 km/h 84 % 0.0 mm
04:55 14.3 °C 11.4 °C 1021.9 hPa NE 3.2 km/h 3.2 km/h 83 % 0.0 mm
05:05 14.3 °C 11.3 °C 1021.9 hPa NE 1.6 km/h 3.2 km/h 82 % 0.0 mm
05:15 14.7 °C 11.7 °C 1021.9 hPa Calm   4.8 km/h 82 % 0.0 mm
05:25 14.9 °C 11.7 °C 1021.9 hPa NNE 1.6 km/h 4.8 km/h 81 % 0.0 mm
10:29 14.9 °C 11.5 °C 1021.9 hPa ENE 3.7 km/h 3.7 km/h 80 % 0.0 mm
10:34 15.0 °C 11.8 °C 1021.9 hPa ESE 1.9 km/h   81 % 0.0 mm
10:39 15.0 °C 11.8 °C 1021.9 hPa WSW 3.9 km/h 3.9 km/h 81 % 0.0 mm
10:44 15.1 °C 12.1 °C 1021.9 hPa SW 4.2 km/h 4.7 km/h 82 % 0.0 mm
10:49 15.0 °C 11.8 °C 1021.9 hPa SW 5.6 km/h 5.6 km/h 81 % 0.0 mm
10:54 15.1 °C 11.9 °C 1021.9 hPa ESE 3.2 km/h 3.2 km/h 81 % 0.0 mm
10:59 15.4 °C 12.2 °C 1021.9 hPa SW 1.9 km/h 1.9 km/h 81 % 0.0 mm
11:04 15.4 °C 12.2 °C 1021.9 hPa SSW 5.6 km/h 5.6 km/h 81 % 0.0 mm
11:09 15.3 °C 12.1 °C 1021.9 hPa South 3.2 km/h 3.2 km/h 81 % 0.0 mm
11:14 15.3 °C 11.9 °C 1021.9 hPa WSW 3.7 km/h   80 % 0.0 mm
11:19 15.4 °C 11.9 °C 1021.9 hPa SW 5.6 km/h 5.6 km/h 80 % 0.0 mm
11:24 15.3 °C 11.9 °C 1021.9 hPa WSW 3.7 km/h   80 % 0.0 mm
11:29 15.4 °C 11.9 °C 1021.9 hPa WSW 5.6 km/h 5.6 km/h 80 % 0.0 mm
11:34 15.4 °C 11.8 °C 1021.9 hPa WSW 3.7 km/h   79 % 0.0 mm
11:39 15.6 °C 11.9 °C 1021.9 hPa SSW 3.9 km/h 3.9 km/h 79 % 0.0 mm
11:44 15.7 °C 12.1 °C 1020.9 hPa SW 7.4 km/h 7.4 km/h 79 % 0.0 mm
11:54 16.0 °C 12.3 °C 1020.9 hPa SW 8.7 km/h 8.7 km/h 79 % 0.0 mm
11:59 15.9 °C 12.1 °C 1020.9 hPa SSE 3.7 km/h 3.7 km/h 78 % 0.0 mm
12:04 16.3 °C 12.4 °C 1020.9 hPa SW 6.9 km/h 6.9 km/h 78 % 0.0 mm
12:09 16.3 °C 12.4 °C 1020.9 hPa SW 7.4 km/h 7.4 km/h 78 % 0.0 mm
12:14 16.3 °C 12.3 °C 1020.9 hPa SSE 5.6 km/h 5.6 km/h 77 % 0.0 mm
12:19 16.6 °C 12.3 °C 1020.9 hPa South 5.6 km/h 5.6 km/h 76 % 0.0 mm
12:24 16.8 °C 12.3 °C 1020.9 hPa South 7.4 km/h 7.4 km/h 75 % 0.0 mm
12:29 17.3 °C 12.6 °C 1020.9 hPa SSW 5.6 km/h 5.6 km/h 74 % 0.0 mm
12:34 17.9 °C 13.0 °C 1020.9 hPa East 6.9 km/h 6.9 km/h 73 % 0.0 mm
12:39 18.1 °C 12.9 °C 1020.9 hPa WSW 9.3 km/h 9.3 km/h 72 % 0.0 mm
12:44 17.9 °C 12.6 °C 1019.9 hPa WSW 3.7 km/h 3.7 km/h 71 % 0.0 mm
12:49 17.9 °C 12.6 °C 1019.9 hPa SW 5.3 km/h 5.3 km/h 71 % 0.0 mm
12:54 17.7 °C 12.2 °C 1019.9 hPa West 7.4 km/h 7.4 km/h 70 % 0.0 mm
12:59 17.6 °C 12.1 °C 1019.9 hPa SW 3.9 km/h 3.9 km/h 70 % 0.0 mm
13:04 18.1 °C 12.6 °C 1019.9 hPa SW 3.7 km/h 3.7 km/h 70 % 0.0 mm
13:09 18.0 °C 12.0 °C 1019.9 hPa SW 7.4 km/h 7.4 km/h 68 % 0.0 mm
13:14 18.0 °C 12.0 °C 1019.9 hPa SSE 5.6 km/h 5.6 km/h 68 % 0.0 mm
13:24 18.1 °C 12.3 °C 1019.9 hPa West 7.4 km/h 7.4 km/h 69 % 0.0 mm
13:29 18.5 °C 12.5 °C 1019.9 hPa SW 5.6 km/h 5.6 km/h 68 % 0.0 mm
13:34 18.7 °C 12.7 °C 1019.9 hPa WSW 7.9 km/h 7.9 km/h 68 % 0.0 mm
13:39 18.3 °C 12.1 °C 1019.9 hPa WNW 10.3 km/h 10.3 km/h 67 % 0.0 mm
13:44 18.7 °C 12.4 °C 1019.9 hPa SSW 9.3 km/h 9.3 km/h 67 % 0.0 mm
13:49 18.5 °C 12.0 °C 1019.9 hPa SW 9.3 km/h 9.3 km/h 66 % 0.0 mm
13:54 18.5 °C 12.3 °C 1019.9 hPa WSW 10.0 km/h 10.0 km/h 67 % 0.0 mm
13:59 18.3 °C 12.1 °C 1019.9 hPa SSW 7.4 km/h 7.4 km/h 67 % 0.0 mm
14:04 18.5 °C 12.3 °C 1019.9 hPa WSW 9.3 km/h 9.3 km/h 67 % 0.0 mm
14:09 18.6 °C 12.6 °C 1019.9 hPa South 7.9 km/h 7.9 km/h 68 % 0.0 mm
14:14 18.4 °C 12.2 °C 1018.8 hPa WSW 9.3 km/h 9.3 km/h 67 % 0.0 mm
14:19 18.3 °C 12.3 °C 1018.8 hPa SSW 11.1 km/h 11.1 km/h 68 % 0.0 mm
14:24 18.3 °C 12.3 °C 1018.8 hPa SW 13.0 km/h 13.0 km/h 68 % 0.0 mm
14:29 18.5 °C 12.5 °C 1018.8 hPa WSW 6.4 km/h 6.4 km/h 68 % 0.0 mm
14:34 18.9 °C 12.9 °C 1018.8 hPa SW 6.4 km/h 6.4 km/h 68 % 0.0 mm
14:39 18.5 °C 12.3 °C 1018.8 hPa SSW 9.3 km/h 9.3 km/h 67 % 0.0 mm
14:49 18.2 °C 11.9 °C 1018.8 hPa West 13.0 km/h 13.0 km/h 67 % 0.0 mm
14:54 18.0 °C 12.0 °C 1018.8 hPa SSW 11.1 km/h 11.1 km/h 68 % 0.0 mm
14:59 18.0 °C 12.0 °C 1018.8 hPa SW 7.4 km/h 7.4 km/h 68 % 0.0 mm
15:04 18.0 °C 12.0 °C 1018.8 hPa SW 9.3 km/h 9.3 km/h 68 % 0.0 mm
15:09 17.8 °C 12.1 °C 1018.8 hPa SSW 9.0 km/h 9.0 km/h 69 % 0.0 mm
15:14 17.7 °C 11.9 °C 1018.8 hPa SW 11.1 km/h 11.1 km/h 69 % 0.0 mm
15:19 17.7 °C 12.2 °C 1018.8 hPa SW 7.4 km/h 7.4 km/h 70 % 0.0 mm
15:29 17.8 °C 12.4 °C 1017.8 hPa SSW 9.3 km/h 9.3 km/h 71 % 0.0 mm
15:34 17.7 °C 12.4 °C 1017.8 hPa West 9.3 km/h 9.3 km/h 71 % 0.0 mm
15:39 17.5 °C 12.4 °C 1017.8 hPa WSW 7.4 km/h 7.4 km/h 72 % 0.0 mm
15:44 16.6 °C 11.6 °C 1017.8 hPa West 9.3 km/h 9.3 km/h 72 % 0.0 mm
15:54 15.0 °C 10.2 °C 1017.8 hPa WSW 5.6 km/h 5.6 km/h 73 % 1.3 mm
15:59 14.9 °C 10.1 °C 1018.8 hPa SW 3.7 km/h 3.9 km/h 73 % 1.3 mm
16:04 14.7 °C 10.3 °C 1018.8 hPa SW 3.7 km/h 3.7 km/h 75 % 1.3 mm
16:09 14.6 °C 10.2 °C 1018.8 hPa SSW 2.6 km/h 2.6 km/h 75 % 1.3 mm
16:14 14.4 °C 10.4 °C 1017.8 hPa SSW 3.7 km/h   77 % 1.3 mm
16:19 14.4 °C 10.0 °C 1017.8 hPa East 3.7 km/h 3.7 km/h 75 % 1.3 mm
16:24 14.6 °C 10.4 °C 1017.8 hPa East 5.6 km/h 5.6 km/h 76 % 1.3 mm
16:30 14.8 °C 10.8 °C 1017.8 hPa East 1.9 km/h 1.9 km/h 77 % 1.3 mm
16:35 14.8 °C 10.8 °C 1017.8 hPa SW 3.9 km/h 3.9 km/h 77 % 1.3 mm
16:40 14.9 °C 11.1 °C 1017.8 hPa SW 5.6 km/h 5.6 km/h 78 % 1.3 mm
16:45 15.0 °C 11.0 °C 1017.8 hPa NE 3.9 km/h 3.9 km/h 77 % 1.3 mm
16:50 15.3 °C 11.3 °C 1017.8 hPa NNE 3.7 km/h 3.7 km/h 77 % 0.0 mm
16:55 15.5 °C 11.5 °C 1017.8 hPa ENE 3.7 km/h 3.7 km/h 77 % 0.0 mm
17:00 15.8 °C 11.6 °C 1017.8 hPa WNW 3.7 km/h   76 % 0.0 mm
17:05 16.1 °C 11.7 °C 1017.8 hPa NNW 2.3 km/h 2.3 km/h 75 % 0.0 mm
17:10 16.3 °C 11.7 °C 1017.8 hPa West 1.9 km/h 1.9 km/h 74 % 0.0 mm
17:15 16.6 °C 11.9 °C 1017.8 hPa SW 3.7 km/h 3.7 km/h 74 % 0.0 mm
17:20 16.8 °C 12.1 °C 1017.8 hPa SW 1.9 km/h   74 % 0.0 mm
17:25 17.0 °C 11.9 °C 1017.8 hPa SW 3.5 km/h 3.5 km/h 72 % 0.0 mm
17:30 17.0 °C 11.9 °C 1017.8 hPa SW 4.2 km/h 4.2 km/h 72 % 0.0 mm
17:35 17.0 °C 11.9 °C 1017.8 hPa WSW 3.7 km/h 3.7 km/h 72 % 0.0 mm
17:40 17.1 °C 12.0 °C 1017.8 hPa SW 3.7 km/h 3.7 km/h 72 % 0.0 mm
17:45 17.2 °C 12.1 °C 1016.8 hPa SW 5.6 km/h 5.6 km/h 72 % 0.0 mm
17:50 17.2 °C 12.3 °C 1016.8 hPa SW 5.6 km/h 5.6 km/h 73 % 0.0 mm
17:55 17.1 °C 12.4 °C 1016.8 hPa SW 4.2 km/h 4.2 km/h 74 % 0.0 mm
18:00 17.1 °C 12.4 °C 1017.8 hPa SW 5.6 km/h 5.6 km/h 74 % 0.0 mm
18:05 17.2 °C 12.5 °C 1017.8 hPa WSW 3.9 km/h 3.9 km/h 74 % 0.0 mm
18:10 17.2 °C 11.7 °C 1017.8 hPa SSW 6.1 km/h 6.1 km/h 70 % 0.0 mm
18:15 17.1 °C 10.7 °C 1016.8 hPa WSW 5.6 km/h 5.6 km/h 66 % 0.0 mm
18:20 17.1 °C 10.2 °C 1016.8 hPa SW 5.6 km/h 5.6 km/h 64 % 0.0 mm
18:25 17.1 °C 10.0 °C 1016.8 hPa WSW 5.6 km/h 5.6 km/h 63 % 0.0 mm
18:30 17.1 °C 10.0 °C 1016.8 hPa WSW 7.6 km/h 7.6 km/h 63 % 0.0 mm
18:35 17.1 °C 10.0 °C 1016.8 hPa SW 7.4 km/h 7.4 km/h 63 % 0.0 mm
18:40 17.0 °C 9.9 °C 1016.8 hPa West 5.6 km/h 5.6 km/h 63 % 0.0 mm
18:45 17.0 °C 10.1 °C 1015.8 hPa WNW 11.9 km/h 11.9 km/h 64 % 0.0 mm
18:50 16.9 °C 10.5 °C 1015.8 hPa WSW 5.6 km/h 5.8 km/h 66 % 0.0 mm
18:55 16.8 °C 10.4 °C 1015.8 hPa West 5.6 km/h 5.6 km/h 66 % 0.0 mm
19:00 16.8 °C 10.6 °C 1016.8 hPa SW 7.4 km/h 7.4 km/h 67 % 0.0 mm
19:05 16.7 °C 10.8 °C 1016.8 hPa WSW 7.9 km/h 7.9 km/h 68 % 0.0 mm
19:10 16.7 °C 11.0 °C 1016.8 hPa WSW 5.3 km/h 5.3 km/h 69 % 0.0 mm
19:15 16.5 °C 10.8 °C 1015.8 hPa West 9.3 km/h 9.3 km/h 69 % 0.0 mm
19:20 16.5 °C 10.8 °C 1015.8 hPa West 9.3 km/h 9.3 km/h 69 % 0.0 mm
19:25 16.4 °C 10.9 °C 1015.8 hPa West 10.3 km/h 10.3 km/h 70 % 0.0 mm
19:30 16.3 °C 10.8 °C 1015.8 hPa WSW 7.4 km/h 7.4 km/h 70 % 0.0 mm
19:35 16.3 °C 10.8 °C 1015.8 hPa West 7.4 km/h 7.4 km/h 70 % 0.0 mm
19:40 16.2 °C 10.9 °C 1015.8 hPa SW 1.9 km/h 1.9 km/h 71 % 0.0 mm
19:45 16.1 °C 10.8 °C 1015.8 hPa SW 9.3 km/h 9.3 km/h 71 % 0.0 mm
19:50 16.0 °C 10.7 °C 1015.8 hPa WNW 5.6 km/h 5.6 km/h 71 % 0.0 mm
19:55 16.0 °C 10.7 °C 1015.8 hPa WSW 4.7 km/h 4.7 km/h 71 % 0.0 mm
20:00 15.9 °C 10.8 °C 1015.8 hPa WSW 5.6 km/h 5.6 km/h 72 % 0.0 mm
20:05 15.8 °C 10.8 °C 1015.8 hPa WSW 3.7 km/h 3.7 km/h 72 % 0.0 mm
20:10 15.7 °C 10.7 °C 1015.8 hPa WSW 7.4 km/h 7.4 km/h 72 % 0.0 mm
20:15 15.6 °C 10.6 °C 1015.8 hPa WSW 5.6 km/h 5.6 km/h 72 % 0.0 mm
20:20 15.6 °C 10.3 °C 1015.8 hPa WSW 5.6 km/h 5.6 km/h 71 % 0.0 mm
20:25 15.5 °C 10.3 °C 1015.8 hPa West 5.6 km/h 5.6 km/h 71 % 0.0 mm
20:30 15.4 °C 10.2 °C 1015.8 hPa WSW 5.3 km/h 5.3 km/h 71 % 0.0 mm
20:35 15.3 °C 10.1 °C 1015.8 hPa WSW 7.4 km/h 7.4 km/h 71 % 0.0 mm
20:40 15.3 °C 10.1 °C 1015.8 hPa SW 7.4 km/h 7.4 km/h 71 % 0.0 mm
20:45 15.2 °C 10.0 °C 1016.8 hPa WSW 5.6 km/h 5.6 km/h 71 % 0.0 mm
20:50 15.1 °C 9.9 °C 1016.8 hPa SW 3.9 km/h 3.9 km/h 71 % 0.0 mm
20:55 15.0 °C 10.0 °C 1016.8 hPa SW 3.7 km/h 3.7 km/h 72 % 0.0 mm
21:00 15.0 °C 10.0 °C 1016.8 hPa WSW 3.9 km/h 3.9 km/h 72 % 0.0 mm
21:05 12.4 °C 8.7 °C 1017.8 hPa SW 1.6 km/h 3.2 km/h 78 % 0.0 mm
21:10 15.0 °C 9.8 °C 1016.8 hPa West 5.6 km/h 5.6 km/h 71 % 0.0 mm
21:15 14.9 °C 9.9 °C 1015.8 hPa WNW 3.7 km/h 3.7 km/h 72 % 0.0 mm
21:20 14.9 °C 9.9 °C 1015.8 hPa West 4.2 km/h 4.2 km/h 72 % 0.0 mm
21:25 14.8 °C 9.8 °C 1015.8 hPa WSW 3.9 km/h 3.9 km/h 72 % 0.0 mm
21:30 14.8 °C 9.6 °C 1016.8 hPa SW 5.8 km/h 5.8 km/h 71 % 0.0 mm
21:35 14.8 °C 9.6 °C 1016.8 hPa SW 5.6 km/h 5.6 km/h 71 % 0.0 mm
21:40 14.8 °C 9.8 °C 1016.8 hPa WSW 5.3 km/h 5.3 km/h 72 % 0.0 mm
21:45 14.8 °C 9.6 °C 1016.8 hPa WSW 5.0 km/h 5.0 km/h 71 % 0.0 mm
21:50 14.7 °C 9.5 °C 1016.8 hPa WSW 7.4 km/h 7.4 km/h 71 % 0.0 mm
21:55 14.7 °C 9.7 °C 1016.8 hPa SW 3.7 km/h 3.7 km/h 72 % 0.0 mm
22:00 14.6 °C 9.6 °C 1017.8 hPa SW 3.5 km/h 3.5 km/h 72 % 0.0 mm
22:05 14.6 °C 9.6 °C 1017.8 hPa WSW 3.7 km/h 3.7 km/h 72 % 0.0 mm
22:10 14.5 °C 9.5 °C 1017.8 hPa WSW 3.7 km/h 3.7 km/h 72 % 0.0 mm
22:15 14.5 °C 9.7 °C 1017.8 hPa SW 3.9 km/h 3.9 km/h 73 % 0.0 mm
22:20 14.4 °C 9.6 °C 1017.8 hPa SW 4.7 km/h 4.7 km/h 73 % 0.0 mm
22:25 14.4 °C 9.6 °C 1017.8 hPa SW 5.6 km/h 5.6 km/h 73 % 0.0 mm
22:30 14.3 °C 9.7 °C 1016.8 hPa WSW 3.7 km/h 3.7 km/h 74 % 0.0 mm
22:35 14.3 °C 9.7 °C 1016.8 hPa SW 3.7 km/h 3.9 km/h 74 % 0.0 mm
22:40 14.2 °C 9.6 °C 1016.8 hPa SW 5.6 km/h 5.6 km/h 74 % 0.0 mm
22:45 14.1 °C 9.7 °C 1016.8 hPa WSW 3.7 km/h 3.7 km/h 75 % 0.0 mm
22:50 14.0 °C 9.6 °C 1016.8 hPa SW 3.9 km/h 3.9 km/h 75 % 0.0 mm
22:55 14.0 °C 9.6 °C 1016.8 hPa SW 5.6 km/h 5.6 km/h 75 % 0.0 mm
23:00 13.9 °C 9.6 °C 1017.8 hPa SW 3.2 km/h 4.8 km/h 75 % 0.0 mm
23:05 13.8 °C 9.7 °C 1017.8 hPa SW 3.2 km/h 4.8 km/h 76 % 0.0 mm
23:10 13.8 °C 9.7 °C 1017.8 hPa WSW 3.7 km/h 3.7 km/h 76 % 0.0 mm
23:15 13.8 °C 9.7 °C 1017.8 hPa West 3.7 km/h   76 % 0.0 mm
23:20 13.9 °C 9.6 °C 1017.8 hPa WSW 5.6 km/h 5.6 km/h 75 % 0.0 mm
23:25 14.1 °C 9.7 °C 1017.8 hPa WSW 5.6 km/h 5.6 km/h 75 % 0.0 mm
23:30 14.1 °C 9.7 °C 1016.8 hPa WSW 1.9 km/h 1.9 km/h 75 % 0.0 mm
23:35 14.1 °C 9.6 °C 1016.8 hPa WSW 2.6 km/h 2.6 km/h 74 % 0.0 mm
23:40 14.0 °C 9.4 °C 1016.8 hPa WSW 3.9 km/h 3.9 km/h 74 % 0.0 mm
23:45 14.0 °C 9.4 °C 1017.8 hPa WSW 2.3 km/h 2.3 km/h 74 % 0.0 mm
23:50 13.9 °C 9.6 °C 1017.8 hPa West 3.7 km/h 3.7 km/h 75 % 0.0 mm
23:55 13.8 °C 9.4 °C 1017.8 hPa Calm     75 % 0.0 mm
Meteo Sesrovires
Elogis d' Weather Underground - 3.5 mb

Guio original per  Jim McMurry - jmcmurry@mwt.net Adaptat per a la plantilla per  Wim van der Kuil - Leuven-Template.eu

Trobareu la nostra informacio del temps tambe a:

Weather Underground

AWEKAS